sensor_id;sensor_type;location;lat;lon;timestamp;P1;durP1;ratioP1;P2;durP2;ratioP2
68910;SDS011;55953;51.650;-0.522;2023-11-21T00:00:56;6.80;;;3.80;;
68910;SDS011;55953;51.650;-0.522;2023-11-21T00:03:38;6.20;;;3.50;;
68910;SDS011;55953;51.650;-0.522;2023-11-21T00:06:07;5.40;;;3.50;;
68910;SDS011;55953;51.650;-0.522;2023-11-21T00:08:37;5.60;;;3.50;;
68910;SDS011;55953;51.650;-0.522;2023-11-21T00:11:05;3.70;;;3.30;;
68910;SDS011;55953;51.650;-0.522;2023-11-21T00:13:33;4.60;;;3.70;;
68910;SDS011;55953;51.650;-0.522;2023-11-21T00:16:02;5.10;;;3.80;;
68910;SDS011;55953;51.650;-0.522;2023-11-21T00:18:31;5.50;;;3.80;;
68910;SDS011;55953;51.650;-0.522;2023-11-21T00:20:59;6.50;;;4.20;;
68910;SDS011;55953;51.650;-0.522;2023-11-21T00:23:27;4.30;;;3.90;;
68910;SDS011;55953;51.650;-0.522;2023-11-21T00:25:55;6.60;;;4.10;;
68910;SDS011;55953;51.650;-0.522;2023-11-21T00:28:23;6.40;;;4.40;;
68910;SDS011;55953;51.650;-0.522;2023-11-21T00:30:51;5.20;;;4.10;;
68910;SDS011;55953;51.650;-0.522;2023-11-21T00:33:19;7.60;;;4.60;;
68910;SDS011;55953;51.650;-0.522;2023-11-21T00:35:47;6.80;;;4.10;;
68910;SDS011;55953;51.650;-0.522;2023-11-21T00:38:14;7.50;;;3.90;;
68910;SDS011;55953;51.650;-0.522;2023-11-21T00:40:42;5.80;;;4.50;;
68910;SDS011;55953;51.650;-0.522;2023-11-21T00:43:10;6.30;;;4.30;;
68910;SDS011;55953;51.650;-0.522;2023-11-21T00:45:38;6.50;;;4.10;;
68910;SDS011;55953;51.650;-0.522;2023-11-21T00:48:07;10.00;;;5.70;;
68910;SDS011;55953;51.650;-0.522;2023-11-21T00:50:35;7.60;;;4.30;;
68910;SDS011;55953;51.650;-0.522;2023-11-21T00:53:03;6.10;;;4.20;;
68910;SDS011;55953;51.650;-0.522;2023-11-21T00:55:31;5.90;;;3.80;;
68910;SDS011;55953;51.650;-0.522;2023-11-21T00:57:59;5.90;;;3.80;;
68910;SDS011;55953;51.650;-0.522;2023-11-21T01:00:27;6.80;;;4.20;;
68910;SDS011;55953;51.650;-0.522;2023-11-21T01:02:55;5.10;;;3.80;;
68910;SDS011;55953;51.650;-0.522;2023-11-21T01:05:23;5.30;;;3.60;;
68910;SDS011;55953;51.650;-0.522;2023-11-21T01:07:52;5.90;;;3.30;;
68910;SDS011;55953;51.650;-0.522;2023-11-21T01:10:20;6.60;;;3.10;;
68910;SDS011;55953;51.650;-0.522;2023-11-21T01:12:48;4.60;;;3.30;;
68910;SDS011;55953;51.650;-0.522;2023-11-21T01:15:16;5.20;;;2.80;;
68910;SDS011;55953;51.650;-0.522;2023-11-21T01:17:44;4.00;;;2.70;;
68910;SDS011;55953;51.650;-0.522;2023-11-21T01:20:12;3.20;;;2.30;;
68910;SDS011;55953;51.650;-0.522;2023-11-21T01:22:41;4.60;;;2.20;;
68910;SDS011;55953;51.650;-0.522;2023-11-21T01:25:10;3.10;;;2.00;;
68910;SDS011;55953;51.650;-0.522;2023-11-21T01:27:38;3.30;;;2.50;;
68910;SDS011;55953;51.650;-0.522;2023-11-21T01:30:06;3.20;;;2.00;;
68910;SDS011;55953;51.650;-0.522;2023-11-21T01:32:39;2.60;;;2.20;;
68910;SDS011;55953;51.650;-0.522;2023-11-21T01:35:08;3.90;;;2.30;;
68910;SDS011;55953;51.650;-0.522;2023-11-21T01:37:37;4.30;;;2.20;;
68910;SDS011;55953;51.650;-0.522;2023-11-21T01:40:07;3.90;;;2.30;;
68910;SDS011;55953;51.650;-0.522;2023-11-21T01:42:38;3.50;;;2.30;;
68910;SDS011;55953;51.650;-0.522;2023-11-21T01:45:07;3.10;;;2.40;;
68910;SDS011;55953;51.650;-0.522;2023-11-21T01:47:35;3.40;;;2.30;;
68910;SDS011;55953;51.650;-0.522;2023-11-21T01:50:06;3.80;;;2.40;;
68910;SDS011;55953;51.650;-0.522;2023-11-21T01:52:40;3.00;;;2.00;;
68910;SDS011;55953;51.650;-0.522;2023-11-21T01:55:09;4.30;;;2.10;;
68910;SDS011;55953;51.650;-0.522;2023-11-21T01:57:37;3.10;;;2.00;;
68910;SDS011;55953;51.650;-0.522;2023-11-21T02:00:09;3.20;;;1.90;;
68910;SDS011;55953;51.650;-0.522;2023-11-21T02:02:45;2.90;;;1.60;;
68910;SDS011;55953;51.650;-0.522;2023-11-21T02:05:18;2.20;;;1.70;;
68910;SDS011;55953;51.650;-0.522;2023-11-21T02:07:47;3.40;;;1.90;;
68910;SDS011;55953;51.650;-0.522;2023-11-21T02:10:20;2.80;;;1.90;;
68910;SDS011;55953;51.650;-0.522;2023-11-21T02:12:52;2.50;;;1.60;;
68910;SDS011;55953;51.650;-0.522;2023-11-21T02:15:22;2.80;;;1.90;;
68910;SDS011;55953;51.650;-0.522;2023-11-21T02:17:51;2.80;;;1.70;;
68910;SDS011;55953;51.650;-0.522;2023-11-21T02:20:21;1.90;;;1.70;;
68910;SDS011;55953;51.650;-0.522;2023-11-21T02:22:54;4.00;;;1.90;;
68910;SDS011;55953;51.650;-0.522;2023-11-21T02:25:29;3.40;;;2.00;;
68910;SDS011;55953;51.650;-0.522;2023-11-21T02:28:02;2.80;;;1.90;;
68910;SDS011;55953;51.650;-0.522;2023-11-21T02:30:31;2.90;;;1.80;;
68910;SDS011;55953;51.650;-0.522;2023-11-21T02:33:02;2.90;;;2.10;;
68910;SDS011;55953;51.650;-0.522;2023-11-21T02:35:31;3.10;;;2.00;;
68910;SDS011;55953;51.650;-0.522;2023-11-21T02:37:59;2.50;;;1.90;;
68910;SDS011;55953;51.650;-0.522;2023-11-21T02:40:27;3.30;;;2.30;;
68910;SDS011;55953;51.650;-0.522;2023-11-21T02:42:55;3.10;;;2.10;;
68910;SDS011;55953;51.650;-0.522;2023-11-21T02:45:26;4.10;;;2.30;;
68910;SDS011;55953;51.650;-0.522;2023-11-21T02:47:54;3.40;;;2.30;;
68910;SDS011;55953;51.650;-0.522;2023-11-21T02:50:25;3.90;;;2.50;;
68910;SDS011;55953;51.650;-0.522;2023-11-21T02:52:53;3.10;;;2.00;;
68910;SDS011;55953;51.650;-0.522;2023-11-21T02:55:21;3.70;;;3.00;;
68910;SDS011;55953;51.650;-0.522;2023-11-21T02:57:49;5.00;;;2.70;;
68910;SDS011;55953;51.650;-0.522;2023-11-21T03:00:18;3.50;;;2.50;;
68910;SDS011;55953;51.650;-0.522;2023-11-21T03:02:46;2.30;;;1.90;;
68910;SDS011;55953;51.650;-0.522;2023-11-21T03:05:15;4.00;;;2.80;;
68910;SDS011;55953;51.650;-0.522;2023-11-21T03:07:43;2.70;;;1.60;;
68910;SDS011;55953;51.650;-0.522;2023-11-21T03:10:11;1.70;;;1.40;;
68910;SDS011;55953;51.650;-0.522;2023-11-21T03:12:40;1.90;;;1.40;;
68910;SDS011;55953;51.650;-0.522;2023-11-21T03:15:08;2.30;;;1.60;;
68910;SDS011;55953;51.650;-0.522;2023-11-21T03:17:37;2.30;;;1.60;;
68910;SDS011;55953;51.650;-0.522;2023-11-21T03:20:05;2.10;;;1.40;;
68910;SDS011;55953;51.650;-0.522;2023-11-21T03:22:38;3.00;;;1.70;;
68910;SDS011;55953;51.650;-0.522;2023-11-21T03:25:07;2.40;;;1.60;;
68910;SDS011;55953;51.650;-0.522;2023-11-21T03:27:38;2.60;;;1.70;;
68910;SDS011;55953;51.650;-0.522;2023-11-21T03:30:08;2.50;;;1.70;;
68910;SDS011;55953;51.650;-0.522;2023-11-21T03:32:37;2.00;;;1.60;;
68910;SDS011;55953;51.650;-0.522;2023-11-21T03:35:05;2.50;;;1.40;;
68910;SDS011;55953;51.650;-0.522;2023-11-21T03:37:34;2.30;;;1.50;;
68910;SDS011;55953;51.650;-0.522;2023-11-21T03:40:03;2.40;;;1.30;;
68910;SDS011;55953;51.650;-0.522;2023-11-21T03:42:31;2.00;;;1.50;;
68910;SDS011;55953;51.650;-0.522;2023-11-21T03:44:59;1.80;;;1.30;;
68910;SDS011;55953;51.650;-0.522;2023-11-21T03:47:28;1.30;;;1.10;;
68910;SDS011;55953;51.650;-0.522;2023-11-21T03:49:56;2.10;;;1.30;;
68910;SDS011;55953;51.650;-0.522;2023-11-21T03:52:24;2.20;;;1.20;;
68910;SDS011;55953;51.650;-0.522;2023-11-21T03:54:52;1.70;;;1.10;;
68910;SDS011;55953;51.650;-0.522;2023-11-21T03:57:21;3.60;;;1.50;;
68910;SDS011;55953;51.650;-0.522;2023-11-21T03:59:49;1.60;;;1.20;;
68910;SDS011;55953;51.650;-0.522;2023-11-21T04:02:17;3.00;;;1.40;;
68910;SDS011;55953;51.650;-0.522;2023-11-21T04:04:45;2.20;;;1.40;;
68910;SDS011;55953;51.650;-0.522;2023-11-21T04:07:13;1.40;;;1.10;;
68910;SDS011;55953;51.650;-0.522;2023-11-21T04:09:41;1.70;;;1.30;;
68910;SDS011;55953;51.650;-0.522;2023-11-21T04:12:08;2.30;;;1.20;;
68910;SDS011;55953;51.650;-0.522;2023-11-21T04:14:38;2.60;;;1.20;;
68910;SDS011;55953;51.650;-0.522;2023-11-21T04:17:06;1.70;;;1.10;;
68910;SDS011;55953;51.650;-0.522;2023-11-21T04:19:35;1.40;;;1.20;;
68910;SDS011;55953;51.650;-0.522;2023-11-21T04:22:02;1.70;;;1.30;;
68910;SDS011;55953;51.650;-0.522;2023-11-21T04:24:31;1.40;;;1.10;;
68910;SDS011;55953;51.650;-0.522;2023-11-21T04:26:59;3.70;;;1.40;;
68910;SDS011;55953;51.650;-0.522;2023-11-21T04:29:27;2.10;;;1.20;;
68910;SDS011;55953;51.650;-0.522;2023-11-21T04:31:55;1.70;;;1.20;;
68910;SDS011;55953;51.650;-0.522;2023-11-21T04:34:22;2.00;;;1.50;;
68910;SDS011;55953;51.650;-0.522;2023-11-21T04:36:50;2.90;;;1.40;;
68910;SDS011;55953;51.650;-0.522;2023-11-21T04:39:18;3.10;;;1.60;;
68910;SDS011;55953;51.650;-0.522;2023-11-21T04:41:47;4.00;;;1.60;;
68910;SDS011;55953;51.650;-0.522;2023-11-21T04:44:15;2.80;;;1.70;;
68910;SDS011;55953;51.650;-0.522;2023-11-21T04:46:44;3.30;;;2.20;;
68910;SDS011;55953;51.650;-0.522;2023-11-21T04:49:11;4.80;;;1.70;;
68910;SDS011;55953;51.650;-0.522;2023-11-21T04:51:39;5.10;;;1.80;;
68910;SDS011;55953;51.650;-0.522;2023-11-21T04:54:07;2.60;;;1.60;;
68910;SDS011;55953;51.650;-0.522;2023-11-21T04:56:35;3.70;;;1.70;;
68910;SDS011;55953;51.650;-0.522;2023-11-21T04:59:03;5.60;;;1.90;;
68910;SDS011;55953;51.650;-0.522;2023-11-21T05:01:32;2.50;;;1.60;;
68910;SDS011;55953;51.650;-0.522;2023-11-21T05:04:00;3.00;;;1.60;;
68910;SDS011;55953;51.650;-0.522;2023-11-21T05:06:28;4.90;;;1.80;;
68910;SDS011;55953;51.650;-0.522;2023-11-21T05:08:55;3.10;;;1.60;;
68910;SDS011;55953;51.650;-0.522;2023-11-21T05:11:27;3.00;;;1.80;;
68910;SDS011;55953;51.650;-0.522;2023-11-21T05:13:59;2.50;;;1.40;;
68910;SDS011;55953;51.650;-0.522;2023-11-21T05:16:29;2.50;;;1.60;;
68910;SDS011;55953;51.650;-0.522;2023-11-21T05:18:57;2.30;;;1.30;;
68910;SDS011;55953;51.650;-0.522;2023-11-21T05:21:28;4.50;;;1.40;;
68910;SDS011;55953;51.650;-0.522;2023-11-21T05:23:58;4.90;;;1.30;;
68910;SDS011;55953;51.650;-0.522;2023-11-21T05:26:26;3.70;;;1.30;;
68910;SDS011;55953;51.650;-0.522;2023-11-21T05:28:54;3.40;;;1.40;;
68910;SDS011;55953;51.650;-0.522;2023-11-21T05:31:22;4.10;;;1.40;;
68910;SDS011;55953;51.650;-0.522;2023-11-21T05:33:50;1.80;;;1.20;;
68910;SDS011;55953;51.650;-0.522;2023-11-21T05:36:17;2.50;;;1.50;;
68910;SDS011;55953;51.650;-0.522;2023-11-21T05:38:45;8.10;;;2.70;;
68910;SDS011;55953;51.650;-0.522;2023-11-21T05:41:15;1.60;;;1.20;;
68910;SDS011;55953;51.650;-0.522;2023-11-21T05:43:42;3.70;;;1.40;;
68910;SDS011;55953;51.650;-0.522;2023-11-21T05:46:11;2.20;;;1.40;;
68910;SDS011;55953;51.650;-0.522;2023-11-21T05:48:40;3.80;;;1.50;;
68910;SDS011;55953;51.650;-0.522;2023-11-21T05:51:09;3.40;;;1.40;;
68910;SDS011;55953;51.650;-0.522;2023-11-21T05:53:37;3.60;;;1.30;;
68910;SDS011;55953;51.650;-0.522;2023-11-21T05:56:05;3.60;;;1.90;;
68910;SDS011;55953;51.650;-0.522;2023-11-21T05:58:33;3.50;;;1.50;;
68910;SDS011;55953;51.650;-0.522;2023-11-21T06:01:05;3.10;;;1.30;;
68910;SDS011;55953;51.650;-0.522;2023-11-21T06:03:37;2.60;;;1.30;;
68910;SDS011;55953;51.650;-0.522;2023-11-21T06:06:05;3.00;;;1.50;;
68910;SDS011;55953;51.650;-0.522;2023-11-21T06:08:34;4.40;;;1.30;;
68910;SDS011;55953;51.650;-0.522;2023-11-21T06:11:02;3.40;;;1.30;;
68910;SDS011;55953;51.650;-0.522;2023-11-21T06:13:30;3.00;;;1.20;;
68910;SDS011;55953;51.650;-0.522;2023-11-21T06:15:58;3.30;;;1.10;;
68910;SDS011;55953;51.650;-0.522;2023-11-21T06:18:28;4.40;;;1.20;;
68910;SDS011;55953;51.650;-0.522;2023-11-21T06:20:55;3.20;;;1.20;;
68910;SDS011;55953;51.650;-0.522;2023-11-21T06:23:23;3.50;;;1.10;;
68910;SDS011;55953;51.650;-0.522;2023-11-21T06:25:51;4.30;;;1.10;;
68910;SDS011;55953;51.650;-0.522;2023-11-21T06:28:19;3.30;;;1.40;;
68910;SDS011;55953;51.650;-0.522;2023-11-21T06:30:47;2.40;;;1.00;;
68910;SDS011;55953;51.650;-0.522;2023-11-21T06:33:16;3.90;;;1.10;;
68910;SDS011;55953;51.650;-0.522;2023-11-21T06:35:44;2.40;;;0.90;;
68910;SDS011;55953;51.650;-0.522;2023-11-21T06:38:12;2.40;;;1.00;;
68910;SDS011;55953;51.650;-0.522;2023-11-21T06:40:40;1.30;;;0.80;;
68910;SDS011;55953;51.650;-0.522;2023-11-21T06:43:08;1.40;;;0.90;;
68910;SDS011;55953;51.650;-0.522;2023-11-21T06:45:36;2.90;;;1.10;;
68910;SDS011;55953;51.650;-0.522;2023-11-21T06:48:04;3.60;;;0.80;;
68910;SDS011;55953;51.650;-0.522;2023-11-21T06:50:32;2.50;;;0.90;;
68910;SDS011;55953;51.650;-0.522;2023-11-21T06:53:00;2.50;;;1.10;;
68910;SDS011;55953;51.650;-0.522;2023-11-21T06:55:30;2.60;;;0.90;;
68910;SDS011;55953;51.650;-0.522;2023-11-21T06:57:58;1.70;;;0.80;;
68910;SDS011;55953;51.650;-0.522;2023-11-21T07:00:27;4.30;;;0.90;;
68910;SDS011;55953;51.650;-0.522;2023-11-21T07:02:55;2.10;;;0.80;;
68910;SDS011;55953;51.650;-0.522;2023-11-21T07:05:23;1.90;;;1.00;;
68910;SDS011;55953;51.650;-0.522;2023-11-21T07:07:51;1.20;;;0.80;;
68910;SDS011;55953;51.650;-0.522;2023-11-21T07:10:21;1.30;;;0.80;;
68910;SDS011;55953;51.650;-0.522;2023-11-21T07:12:49;1.80;;;0.70;;
68910;SDS011;55953;51.650;-0.522;2023-11-21T07:15:18;2.90;;;0.80;;
68910;SDS011;55953;51.650;-0.522;2023-11-21T07:17:47;1.50;;;0.80;;
68910;SDS011;55953;51.650;-0.522;2023-11-21T07:20:16;2.40;;;0.70;;
68910;SDS011;55953;51.650;-0.522;2023-11-21T07:22:44;1.00;;;0.70;;
68910;SDS011;55953;51.650;-0.522;2023-11-21T07:25:13;2.70;;;0.80;;
68910;SDS011;55953;51.650;-0.522;2023-11-21T07:27:41;1.30;;;0.80;;
68910;SDS011;55953;51.650;-0.522;2023-11-21T07:30:09;3.20;;;0.80;;
68910;SDS011;55953;51.650;-0.522;2023-11-21T07:32:38;1.40;;;0.70;;
68910;SDS011;55953;51.650;-0.522;2023-11-21T07:35:08;4.50;;;0.90;;
68910;SDS011;55953;51.650;-0.522;2023-11-21T07:37:36;1.40;;;0.70;;
68910;SDS011;55953;51.650;-0.522;2023-11-21T07:40:05;1.50;;;0.80;;
68910;SDS011;55953;51.650;-0.522;2023-11-21T07:42:36;3.20;;;0.80;;
68910;SDS011;55953;51.650;-0.522;2023-11-21T07:45:05;2.10;;;0.80;;
68910;SDS011;55953;51.650;-0.522;2023-11-21T07:47:35;1.00;;;0.70;;
68910;SDS011;55953;51.650;-0.522;2023-11-21T07:50:03;0.80;;;0.60;;
68910;SDS011;55953;51.650;-0.522;2023-11-21T07:52:32;1.70;;;0.70;;
68910;SDS011;55953;51.650;-0.522;2023-11-21T07:55:00;1.30;;;0.60;;
68910;SDS011;55953;51.650;-0.522;2023-11-21T07:57:27;2.40;;;0.90;;
68910;SDS011;55953;51.650;-0.522;2023-11-21T07:59:55;2.60;;;1.00;;
68910;SDS011;55953;51.650;-0.522;2023-11-21T08:02:23;2.00;;;1.00;;
68910;SDS011;55953;51.650;-0.522;2023-11-21T08:04:52;1.20;;;0.80;;
68910;SDS011;55953;51.650;-0.522;2023-11-21T08:07:20;3.10;;;1.20;;
68910;SDS011;55953;51.650;-0.522;2023-11-21T08:09:48;1.80;;;0.90;;
68910;SDS011;55953;51.650;-0.522;2023-11-21T08:12:17;2.60;;;1.10;;
68910;SDS011;55953;51.650;-0.522;2023-11-21T08:14:45;2.90;;;1.30;;
68910;SDS011;55953;51.650;-0.522;2023-11-21T08:17:13;1.70;;;0.80;;
68910;SDS011;55953;51.650;-0.522;2023-11-21T08:19:44;2.60;;;1.20;;
68910;SDS011;55953;51.650;-0.522;2023-11-21T08:22:16;2.30;;;0.90;;
68910;SDS011;55953;51.650;-0.522;2023-11-21T08:24:45;1.70;;;0.90;;
68910;SDS011;55953;51.650;-0.522;2023-11-21T08:27:14;4.30;;;1.60;;
68910;SDS011;55953;51.650;-0.522;2023-11-21T08:29:43;3.70;;;1.20;;
68910;SDS011;55953;51.650;-0.522;2023-11-21T08:32:11;2.60;;;1.20;;
68910;SDS011;55953;51.650;-0.522;2023-11-21T08:34:39;3.20;;;1.30;;
68910;SDS011;55953;51.650;-0.522;2023-11-21T08:37:10;2.50;;;1.30;;
68910;SDS011;55953;51.650;-0.522;2023-11-21T08:39:38;4.70;;;1.30;;
68910;SDS011;55953;51.650;-0.522;2023-11-21T08:42:06;1.40;;;1.00;;
68910;SDS011;55953;51.650;-0.522;2023-11-21T08:44:34;2.20;;;1.30;;
68910;SDS011;55953;51.650;-0.522;2023-11-21T08:47:02;2.70;;;1.50;;
68910;SDS011;55953;51.650;-0.522;2023-11-21T08:49:32;3.30;;;1.50;;
68910;SDS011;55953;51.650;-0.522;2023-11-21T08:52:01;4.20;;;1.40;;
68910;SDS011;55953;51.650;-0.522;2023-11-21T08:54:29;3.40;;;1.30;;
68910;SDS011;55953;51.650;-0.522;2023-11-21T08:56:57;1.90;;;1.20;;
68910;SDS011;55953;51.650;-0.522;2023-11-21T08:59:28;3.00;;;1.30;;
68910;SDS011;55953;51.650;-0.522;2023-11-21T09:01:55;1.80;;;1.40;;
68910;SDS011;55953;51.650;-0.522;2023-11-21T09:04:24;3.10;;;1.30;;
68910;SDS011;55953;51.650;-0.522;2023-11-21T09:06:51;2.60;;;1.20;;
68910;SDS011;55953;51.650;-0.522;2023-11-21T09:09:19;2.10;;;1.40;;
68910;SDS011;55953;51.650;-0.522;2023-11-21T09:11:47;2.40;;;1.30;;
68910;SDS011;55953;51.650;-0.522;2023-11-21T09:14:16;5.90;;;1.70;;
68910;SDS011;55953;51.650;-0.522;2023-11-21T09:16:45;2.00;;;1.50;;
68910;SDS011;55953;51.650;-0.522;2023-11-21T09:19:13;2.80;;;1.60;;
68910;SDS011;55953;51.650;-0.522;2023-11-21T09:21:41;3.00;;;1.80;;
68910;SDS011;55953;51.650;-0.522;2023-11-21T09:24:09;1.80;;;1.40;;
68910;SDS011;55953;51.650;-0.522;2023-11-21T09:26:37;3.40;;;1.60;;
68910;SDS011;55953;51.650;-0.522;2023-11-21T09:29:05;3.30;;;1.80;;
68910;SDS011;55953;51.650;-0.522;2023-11-21T09:31:33;3.40;;;1.50;;
68910;SDS011;55953;51.650;-0.522;2023-11-21T09:34:01;2.80;;;1.50;;
68910;SDS011;55953;51.650;-0.522;2023-11-21T09:36:29;2.80;;;1.70;;
68910;SDS011;55953;51.650;-0.522;2023-11-21T09:38:58;3.00;;;1.40;;
68910;SDS011;55953;51.650;-0.522;2023-11-21T09:41:43;3.60;;;1.80;;
68910;SDS011;55953;51.650;-0.522;2023-11-21T09:44:18;1.80;;;1.30;;
68910;SDS011;55953;51.650;-0.522;2023-11-21T09:46:48;2.40;;;1.50;;
68910;SDS011;55953;51.650;-0.522;2023-11-21T09:49:22;1.80;;;1.30;;
68910;SDS011;55953;51.650;-0.522;2023-11-21T09:51:55;1.60;;;1.30;;
68910;SDS011;55953;51.650;-0.522;2023-11-21T09:54:27;2.60;;;1.20;;
68910;SDS011;55953;51.650;-0.522;2023-11-21T09:56:58;1.60;;;1.20;;
68910;SDS011;55953;51.650;-0.522;2023-11-21T09:59:30;2.20;;;1.40;;
68910;SDS011;55953;51.650;-0.522;2023-11-21T10:02:03;1.20;;;1.10;;
68910;SDS011;55953;51.650;-0.522;2023-11-21T10:04:31;1.30;;;1.20;;
68910;SDS011;55953;51.650;-0.522;2023-11-21T10:06:59;1.10;;;0.80;;
68910;SDS011;55953;51.650;-0.522;2023-11-21T10:09:27;1.70;;;1.10;;
68910;SDS011;55953;51.650;-0.522;2023-11-21T10:11:56;1.30;;;1.10;;
68910;SDS011;55953;51.650;-0.522;2023-11-21T10:14:26;1.20;;;1.10;;
68910;SDS011;55953;51.650;-0.522;2023-11-21T10:16:57;1.60;;;1.00;;
68910;SDS011;55953;51.650;-0.522;2023-11-21T10:19:26;1.60;;;0.70;;
68910;SDS011;55953;51.650;-0.522;2023-11-21T10:21:55;1.60;;;0.80;;
68910;SDS011;55953;51.650;-0.522;2023-11-21T10:24:25;1.50;;;1.30;;
68910;SDS011;55953;51.650;-0.522;2023-11-21T10:26:53;0.90;;;0.80;;
68910;SDS011;55953;51.650;-0.522;2023-11-21T10:29:21;1.20;;;0.70;;
68910;SDS011;55953;51.650;-0.522;2023-11-21T10:31:50;1.30;;;0.80;;
68910;SDS011;55953;51.650;-0.522;2023-11-21T10:34:20;0.70;;;0.60;;
68910;SDS011;55953;51.650;-0.522;2023-11-21T10:36:48;1.70;;;0.80;;
68910;SDS011;55953;51.650;-0.522;2023-11-21T10:39:18;1.50;;;0.70;;
68910;SDS011;55953;51.650;-0.522;2023-11-21T10:41:48;1.60;;;0.70;;
68910;SDS011;55953;51.650;-0.522;2023-11-21T10:44:17;1.70;;;0.80;;
68910;SDS011;55953;51.650;-0.522;2023-11-21T10:46:51;0.80;;;0.70;;
68910;SDS011;55953;51.650;-0.522;2023-11-21T10:49:25;1.30;;;0.70;;
68910;SDS011;55953;51.650;-0.522;2023-11-21T10:51:54;1.00;;;0.80;;
68910;SDS011;55953;51.650;-0.522;2023-11-21T10:54:24;1.20;;;0.80;;
68910;SDS011;55953;51.650;-0.522;2023-11-21T10:56:57;0.60;;;0.60;;
68910;SDS011;55953;51.650;-0.522;2023-11-21T10:59:30;2.50;;;0.80;;
68910;SDS011;55953;51.650;-0.522;2023-11-21T11:02:01;1.10;;;0.70;;
68910;SDS011;55953;51.650;-0.522;2023-11-21T11:04:44;1.40;;;0.90;;
68910;SDS011;55953;51.650;-0.522;2023-11-21T11:07:14;0.60;;;0.60;;
68910;SDS011;55953;51.650;-0.522;2023-11-21T11:09:44;1.00;;;0.60;;
68910;SDS011;55953;51.650;-0.522;2023-11-21T11:12:13;1.40;;;0.60;;
68910;SDS011;55953;51.650;-0.522;2023-11-21T11:14:42;0.70;;;0.40;;
68910;SDS011;55953;51.650;-0.522;2023-11-21T11:17:12;0.50;;;0.50;;
68910;SDS011;55953;51.650;-0.522;2023-11-21T11:19:42;0.50;;;0.40;;
68910;SDS011;55953;51.650;-0.522;2023-11-21T11:22:29;0.60;;;0.50;;
68910;SDS011;55953;51.650;-0.522;2023-11-21T11:28:21;1.10;;;0.50;;
68910;SDS011;55953;51.650;-0.522;2023-11-21T11:31:04;1.00;;;0.50;;
68910;SDS011;55953;51.650;-0.522;2023-11-21T11:33:43;0.50;;;0.50;;
68910;SDS011;55953;51.650;-0.522;2023-11-21T11:36:44;0.80;;;0.60;;
68910;SDS011;55953;51.650;-0.522;2023-11-21T11:39:35;0.80;;;0.60;;
68910;SDS011;55953;51.650;-0.522;2023-11-21T11:42:13;0.70;;;0.50;;
68910;SDS011;55953;51.650;-0.522;2023-11-21T11:47:19;0.70;;;0.50;;
68910;SDS011;55953;51.650;-0.522;2023-11-21T11:50:03;0.80;;;0.70;;
68910;SDS011;55953;51.650;-0.522;2023-11-21T11:52:49;1.10;;;0.80;;
68910;SDS011;55953;51.650;-0.522;2023-11-21T11:57:51;1.00;;;0.80;;
68910;SDS011;55953;51.650;-0.522;2023-11-21T12:05:28;0.70;;;0.70;;
68910;SDS011;55953;51.650;-0.522;2023-11-21T12:08:02;4.60;;;1.80;;
68910;SDS011;55953;51.650;-0.522;2023-11-21T12:13:11;0.50;;;0.50;;
68910;SDS011;55953;51.650;-0.522;2023-11-21T12:15:42;0.50;;;0.40;;
68910;SDS011;55953;51.650;-0.522;2023-11-21T12:18:10;0.40;;;0.40;;
68910;SDS011;55953;51.650;-0.522;2023-11-21T12:20:38;0.30;;;0.30;;
68910;SDS011;55953;51.650;-0.522;2023-11-21T12:23:08;1.60;;;0.50;;
68910;SDS011;55953;51.650;-0.522;2023-11-21T12:25:37;0.50;;;0.40;;
68910;SDS011;55953;51.650;-0.522;2023-11-21T12:28:09;0.60;;;0.60;;
68910;SDS011;55953;51.650;-0.522;2023-11-21T12:30:38;0.40;;;0.40;;
68910;SDS011;55953;51.650;-0.522;2023-11-21T12:33:07;0.50;;;0.50;;
68910;SDS011;55953;51.650;-0.522;2023-11-21T12:35:37;0.90;;;0.50;;
68910;SDS011;55953;51.650;-0.522;2023-11-21T12:38:05;0.70;;;0.60;;
68910;SDS011;55953;51.650;-0.522;2023-11-21T12:40:33;1.00;;;0.50;;
68910;SDS011;55953;51.650;-0.522;2023-11-21T12:43:02;2.50;;;0.70;;
68910;SDS011;55953;51.650;-0.522;2023-11-21T12:45:31;0.70;;;0.40;;
68910;SDS011;55953;51.650;-0.522;2023-11-21T12:48:02;1.80;;;0.60;;
68910;SDS011;55953;51.650;-0.522;2023-11-21T12:50:35;2.10;;;0.60;;
68910;SDS011;55953;51.650;-0.522;2023-11-21T12:53:08;2.20;;;0.80;;
68910;SDS011;55953;51.650;-0.522;2023-11-21T12:55:40;2.40;;;0.50;;
68910;SDS011;55953;51.650;-0.522;2023-11-21T12:58:10;1.50;;;0.50;;
68910;SDS011;55953;51.650;-0.522;2023-11-21T13:00:43;1.40;;;0.50;;
68910;SDS011;55953;51.650;-0.522;2023-11-21T13:03:14;1.20;;;0.60;;
68910;SDS011;55953;51.650;-0.522;2023-11-21T13:05:47;0.80;;;0.70;;
68910;SDS011;55953;51.650;-0.522;2023-11-21T13:08:23;1.70;;;0.70;;
68910;SDS011;55953;51.650;-0.522;2023-11-21T13:13:27;1.30;;;1.00;;
68910;SDS011;55953;51.650;-0.522;2023-11-21T13:18:34;1.30;;;0.70;;
68910;SDS011;55953;51.650;-0.522;2023-11-21T13:21:03;1.20;;;0.60;;
68910;SDS011;55953;51.650;-0.522;2023-11-21T13:23:42;1.00;;;0.70;;
68910;SDS011;55953;51.650;-0.522;2023-11-21T13:26:10;2.20;;;1.10;;
68910;SDS011;55953;51.650;-0.522;2023-11-21T13:28:39;1.00;;;0.60;;
68910;SDS011;55953;51.650;-0.522;2023-11-21T13:31:09;2.40;;;0.80;;
68910;SDS011;55953;51.650;-0.522;2023-11-21T13:33:49;3.70;;;1.00;;
68910;SDS011;55953;51.650;-0.522;2023-11-21T13:36:23;6.30;;;1.70;;
68910;SDS011;55953;51.650;-0.522;2023-11-21T13:38:52;4.70;;;1.00;;
68910;SDS011;55953;51.650;-0.522;2023-11-21T13:41:20;3.60;;;1.10;;
68910;SDS011;55953;51.650;-0.522;2023-11-21T13:43:56;6.00;;;1.50;;
68910;SDS011;55953;51.650;-0.522;2023-11-21T13:46:33;6.30;;;1.40;;
68910;SDS011;55953;51.650;-0.522;2023-11-21T13:49:05;8.50;;;1.30;;
68910;SDS011;55953;51.650;-0.522;2023-11-21T13:51:38;5.40;;;1.50;;
68910;SDS011;55953;51.650;-0.522;2023-11-21T13:54:12;7.30;;;1.50;;
68910;SDS011;55953;51.650;-0.522;2023-11-21T13:56:41;6.40;;;1.80;;
68910;SDS011;55953;51.650;-0.522;2023-11-21T13:59:12;7.10;;;1.80;;
68910;SDS011;55953;51.650;-0.522;2023-11-21T14:01:56;6.80;;;2.50;;
68910;SDS011;55953;51.650;-0.522;2023-11-21T14:04:31;7.80;;;1.60;;
68910;SDS011;55953;51.650;-0.522;2023-11-21T14:07:22;4.90;;;1.30;;
68910;SDS011;55953;51.650;-0.522;2023-11-21T14:10:03;6.60;;;1.70;;
68910;SDS011;55953;51.650;-0.522;2023-11-21T14:12:35;4.90;;;1.70;;
68910;SDS011;55953;51.650;-0.522;2023-11-21T14:15:06;7.30;;;2.30;;
68910;SDS011;55953;51.650;-0.522;2023-11-21T14:17:37;4.50;;;1.50;;
68910;SDS011;55953;51.650;-0.522;2023-11-21T14:20:07;6.40;;;1.60;;
68910;SDS011;55953;51.650;-0.522;2023-11-21T14:22:43;6.60;;;1.70;;
68910;SDS011;55953;51.650;-0.522;2023-11-21T14:25:11;6.50;;;1.60;;
68910;SDS011;55953;51.650;-0.522;2023-11-21T14:27:39;9.70;;;1.80;;
68910;SDS011;55953;51.650;-0.522;2023-11-21T14:30:08;6.80;;;1.80;;
68910;SDS011;55953;51.650;-0.522;2023-11-21T14:32:38;6.40;;;1.60;;
68910;SDS011;55953;51.650;-0.522;2023-11-21T14:35:07;6.70;;;1.50;;
68910;SDS011;55953;51.650;-0.522;2023-11-21T14:37:36;7.30;;;1.50;;
68910;SDS011;55953;51.650;-0.522;2023-11-21T14:40:04;4.60;;;1.40;;
68910;SDS011;55953;51.650;-0.522;2023-11-21T14:42:35;6.90;;;1.90;;
68910;SDS011;55953;51.650;-0.522;2023-11-21T14:45:07;6.40;;;1.30;;
68910;SDS011;55953;51.650;-0.522;2023-11-21T14:47:37;6.10;;;1.60;;
68910;SDS011;55953;51.650;-0.522;2023-11-21T14:50:06;6.50;;;1.60;;
68910;SDS011;55953;51.650;-0.522;2023-11-21T14:52:54;7.60;;;2.10;;
68910;SDS011;55953;51.650;-0.522;2023-11-21T14:55:27;7.30;;;1.50;;
68910;SDS011;55953;51.650;-0.522;2023-11-21T14:58:06;5.40;;;1.20;;
68910;SDS011;55953;51.650;-0.522;2023-11-21T15:00:40;5.60;;;1.20;;
68910;SDS011;55953;51.650;-0.522;2023-11-21T15:03:12;7.40;;;1.60;;
68910;SDS011;55953;51.650;-0.522;2023-11-21T15:05:59;6.80;;;1.40;;
68910;SDS011;55953;51.650;-0.522;2023-11-21T15:08:54;8.90;;;1.40;;
68910;SDS011;55953;51.650;-0.522;2023-11-21T15:11:36;5.10;;;1.40;;